sensor_id;sensor_type;location;lat;lon;timestamp;pressure;altitude;pressure_sealevel;temperature;humidity
56074;BME280;41950;55.840;37.442;2023-11-19T00:00:56;100377.84;;;-8.54;83.29
56074;BME280;41950;55.840;37.442;2023-11-19T00:03:22;100469.81;;;-7.86;83.10
56074;BME280;41950;55.840;37.442;2023-11-19T00:05:48;100209.00;;;-9.44;82.77
56074;BME280;41950;55.840;37.442;2023-11-19T00:08:14;100323.75;;;-8.73;82.65
56074;BME280;41950;55.840;37.442;2023-11-19T00:10:41;100234.75;;;-9.23;82.37
56074;BME280;41950;55.840;37.442;2023-11-19T00:13:07;100220.13;;;-9.40;82.51
56074;BME280;41950;55.840;37.442;2023-11-19T00:15:34;100411.88;;;-8.23;82.52
56074;BME280;41950;55.840;37.442;2023-11-19T00:17:59;100348.56;;;-8.65;82.13
56074;BME280;41950;55.840;37.442;2023-11-19T00:20:28;100227.66;;;-9.40;82.15
56074;BME280;41950;55.840;37.442;2023-11-19T00:22:54;100276.91;;;-9.07;82.13
56074;BME280;41950;55.840;37.442;2023-11-19T00:25:23;100366.78;;;-8.56;81.78
56074;BME280;41950;55.840;37.442;2023-11-19T00:27:50;100319.03;;;-8.80;81.70
56074;BME280;41950;55.840;37.442;2023-11-19T00:30:17;100286.63;;;-9.12;81.75
56074;BME280;41950;55.840;37.442;2023-11-19T00:32:43;100383.13;;;-8.63;81.79
56074;BME280;41950;55.840;37.442;2023-11-19T00:35:12;100438.38;;;-8.16;82.26
56074;BME280;41950;55.840;37.442;2023-11-19T00:37:40;100372.81;;;-8.54;81.79
56074;BME280;41950;55.840;37.442;2023-11-19T00:40:11;100449.22;;;-8.17;82.11
56074;BME280;41950;55.840;37.442;2023-11-19T00:42:37;100252.91;;;-9.27;82.27
56074;BME280;41950;55.840;37.442;2023-11-19T00:45:03;100284.78;;;-9.14;82.14
56074;BME280;41950;55.840;37.442;2023-11-19T00:47:31;100287.16;;;-9.04;82.22
56074;BME280;41950;55.840;37.442;2023-11-19T00:49:57;100371.06;;;-8.44;82.20
56074;BME280;41950;55.840;37.442;2023-11-19T00:52:22;100477.00;;;-7.79;82.32
56074;BME280;41950;55.840;37.442;2023-11-19T00:54:48;100320.56;;;-8.70;82.41
56074;BME280;41950;55.840;37.442;2023-11-19T00:57:15;100209.97;;;-9.42;82.42
56074;BME280;41950;55.840;37.442;2023-11-19T00:59:43;100217.06;;;-9.36;82.47
56074;BME280;41950;55.840;37.442;2023-11-19T01:02:10;100430.94;;;-8.26;82.88
56074;BME280;41950;55.840;37.442;2023-11-19T01:04:36;100323.34;;;-8.90;83.07
56074;BME280;41950;55.840;37.442;2023-11-19T01:07:03;100375.31;;;-8.43;83.04
56074;BME280;41950;55.840;37.442;2023-11-19T01:09:32;100334.34;;;-8.65;83.18
56074;BME280;41950;55.840;37.442;2023-11-19T01:12:01;100205.06;;;-9.40;82.91
56074;BME280;41950;55.840;37.442;2023-11-19T01:14:28;100427.16;;;-8.08;83.23
56074;BME280;41950;55.840;37.442;2023-11-19T01:16:54;100383.47;;;-8.33;83.32
56074;BME280;41950;55.840;37.442;2023-11-19T01:19:23;100493.50;;;-7.71;83.48
56074;BME280;41950;55.840;37.442;2023-11-19T01:21:50;100198.31;;;-9.53;83.29
56074;BME280;41950;55.840;37.442;2023-11-19T01:24:16;100496.13;;;-7.69;83.55
56074;BME280;41950;55.840;37.442;2023-11-19T01:26:43;100359.72;;;-8.62;83.39
56074;BME280;41950;55.840;37.442;2023-11-19T01:29:14;100150.72;;;-9.75;83.11
56074;BME280;41950;55.840;37.442;2023-11-19T01:31:43;100389.84;;;-8.38;83.58
56074;BME280;41950;55.840;37.442;2023-11-19T01:34:11;100161.81;;;-9.59;83.30
56074;BME280;41950;55.840;37.442;2023-11-19T01:36:39;100163.66;;;-9.45;83.20
56074;BME280;41950;55.840;37.442;2023-11-19T01:39:06;100129.91;;;-9.49;82.72
56074;BME280;41950;55.840;37.442;2023-11-19T01:41:35;100329.16;;;-8.30;82.50
56074;BME280;41950;55.840;37.442;2023-11-19T01:44:02;100505.72;;;-7.14;82.31
56074;BME280;41950;55.840;37.442;2023-11-19T01:46:29;100167.00;;;-8.96;81.98
56074;BME280;41950;55.840;37.442;2023-11-19T01:48:55;100309.00;;;-8.05;81.57
56074;BME280;41950;55.840;37.442;2023-11-19T01:51:21;100356.97;;;-7.65;81.32
56074;BME280;41950;55.840;37.442;2023-11-19T01:53:48;100335.47;;;-7.60;81.03
56074;BME280;41950;55.840;37.442;2023-11-19T01:56:15;100368.53;;;-7.42;80.84
56074;BME280;41950;55.840;37.442;2023-11-19T01:58:44;100288.22;;;-7.76;80.52
56074;BME280;41950;55.840;37.442;2023-11-19T02:01:11;100449.59;;;-6.98;80.84
56074;BME280;41950;55.840;37.442;2023-11-19T02:03:38;100342.00;;;-7.37;80.33
56074;BME280;41950;55.840;37.442;2023-11-19T02:06:05;100109.34;;;-8.68;80.01
56074;BME280;41950;55.840;37.442;2023-11-19T02:08:31;100225.09;;;-8.04;79.95
56074;BME280;41950;55.840;37.442;2023-11-19T02:10:57;100128.50;;;-8.57;79.66
56074;BME280;41950;55.840;37.442;2023-11-19T02:13:25;100381.47;;;-7.11;79.36
56074;BME280;41950;55.840;37.442;2023-11-19T02:15:53;100294.56;;;-7.56;79.34
56074;BME280;41950;55.840;37.442;2023-11-19T02:18:23;100169.97;;;-8.26;79.23
56074;BME280;41950;55.840;37.442;2023-11-19T02:20:50;100291.06;;;-7.58;79.30
56074;BME280;41950;55.840;37.442;2023-11-19T02:23:17;100348.97;;;-7.20;79.17
56074;BME280;41950;55.840;37.442;2023-11-19T02:25:47;100107.31;;;-8.61;78.51
56074;BME280;41950;55.840;37.442;2023-11-19T02:28:17;100287.63;;;-7.72;78.75
56074;BME280;41950;55.840;37.442;2023-11-19T02:30:44;100459.91;;;-6.56;78.83
56074;BME280;41950;55.840;37.442;2023-11-19T02:33:12;100414.66;;;-6.92;78.43
56074;BME280;41950;55.840;37.442;2023-11-19T02:35:41;100440.06;;;-6.63;78.67
56074;BME280;41950;55.840;37.442;2023-11-19T02:38:07;100370.81;;;-7.07;78.50
56074;BME280;41950;55.840;37.442;2023-11-19T02:40:33;100433.78;;;-6.82;78.58
56074;BME280;41950;55.840;37.442;2023-11-19T02:42:59;100369.06;;;-7.08;78.56
56074;BME280;41950;55.840;37.442;2023-11-19T02:45:26;100281.75;;;-7.59;78.71
56074;BME280;41950;55.840;37.442;2023-11-19T02:47:52;100339.56;;;-7.09;78.53
56074;BME280;41950;55.840;37.442;2023-11-19T02:50:19;100197.53;;;-7.89;78.44
56074;BME280;41950;55.840;37.442;2023-11-19T02:52:53;100447.25;;;-6.29;78.75
56074;BME280;41950;55.840;37.442;2023-11-19T02:55:20;100118.34;;;-8.32;78.43
56074;BME280;41950;55.840;37.442;2023-11-19T02:57:46;100242.00;;;-7.50;78.67
56074;BME280;41950;55.840;37.442;2023-11-19T03:00:16;100281.16;;;-7.29;78.36
56074;BME280;41950;55.840;37.442;2023-11-19T03:02:44;100302.28;;;-7.00;78.56
56074;BME280;41950;55.840;37.442;2023-11-19T03:05:12;100382.41;;;-6.57;78.38
56074;BME280;41950;55.840;37.442;2023-11-19T03:07:44;100392.28;;;-6.46;78.47
56074;BME280;41950;55.840;37.442;2023-11-19T03:10:13;100338.75;;;-6.82;78.31
56074;BME280;41950;55.840;37.442;2023-11-19T03:12:42;100413.91;;;-6.37;78.52
56074;BME280;41950;55.840;37.442;2023-11-19T03:15:09;100155.56;;;-7.89;78.43
56074;BME280;41950;55.840;37.442;2023-11-19T03:17:38;100314.78;;;-6.89;78.73
56074;BME280;41950;55.840;37.442;2023-11-19T03:20:05;100113.03;;;-8.11;78.44
56074;BME280;41950;55.840;37.442;2023-11-19T03:22:32;100406.84;;;-6.42;78.60
56074;BME280;41950;55.840;37.442;2023-11-19T03:25:01;100207.97;;;-7.70;78.15
56074;BME280;41950;55.840;37.442;2023-11-19T03:27:27;100346.72;;;-6.76;78.43
56074;BME280;41950;55.840;37.442;2023-11-19T03:29:53;100231.91;;;-7.37;78.48
56074;BME280;41950;55.840;37.442;2023-11-19T03:32:19;100287.47;;;-7.22;78.50
56074;BME280;41950;55.840;37.442;2023-11-19T03:34:45;100119.13;;;-8.07;78.88
56074;BME280;41950;55.840;37.442;2023-11-19T03:37:11;100314.13;;;-6.99;78.77
56074;BME280;41950;55.840;37.442;2023-11-19T03:39:38;100438.47;;;-6.21;78.97
56074;BME280;41950;55.840;37.442;2023-11-19T03:42:04;100455.16;;;-6.10;79.16
56074;BME280;41950;55.840;37.442;2023-11-19T03:44:29;100345.06;;;-6.75;79.24
56074;BME280;41950;55.840;37.442;2023-11-19T03:46:55;100208.44;;;-7.49;79.17
56074;BME280;41950;55.840;37.442;2023-11-19T03:49:21;100189.00;;;-7.78;79.33
56074;BME280;41950;55.840;37.442;2023-11-19T03:51:47;100370.44;;;-6.59;79.73
56074;BME280;41950;55.840;37.442;2023-11-19T03:54:13;100293.53;;;-6.92;79.88
56074;BME280;41950;55.840;37.442;2023-11-19T03:56:39;100142.09;;;-7.89;80.03
56074;BME280;41950;55.840;37.442;2023-11-19T03:59:05;100235.38;;;-7.22;79.91
56074;BME280;41950;55.840;37.442;2023-11-19T04:01:31;100408.28;;;-6.33;80.12
56074;BME280;41950;55.840;37.442;2023-11-19T04:03:56;100256.78;;;-7.15;79.86
56074;BME280;41950;55.840;37.442;2023-11-19T04:06:22;100238.28;;;-7.16;80.14
56074;BME280;41950;55.840;37.442;2023-11-19T04:08:48;100278.19;;;-6.82;80.20
56074;BME280;41950;55.840;37.442;2023-11-19T04:11:15;100083.28;;;-7.90;80.04
56074;BME280;41950;55.840;37.442;2023-11-19T04:13:41;100346.31;;;-6.28;80.28
56074;BME280;41950;55.840;37.442;2023-11-19T04:16:07;100233.06;;;-6.91;80.21
56074;BME280;41950;55.840;37.442;2023-11-19T04:18:33;100357.91;;;-6.16;80.28
56074;BME280;41950;55.840;37.442;2023-11-19T04:20:59;100365.50;;;-6.16;80.21
56074;BME280;41950;55.840;37.442;2023-11-19T04:23:24;100249.06;;;-6.77;80.18
56074;BME280;41950;55.840;37.442;2023-11-19T04:25:50;100378.00;;;-5.90;80.08
56074;BME280;41950;55.840;37.442;2023-11-19T04:28:16;100372.25;;;-6.02;80.02
56074;BME280;41950;55.840;37.442;2023-11-19T04:30:43;100202.66;;;-7.07;79.65
56074;BME280;41950;55.840;37.442;2023-11-19T04:33:09;100120.41;;;-7.46;79.78
56074;BME280;41950;55.840;37.442;2023-11-19T04:35:35;100296.69;;;-6.40;79.35
56074;BME280;41950;55.840;37.442;2023-11-19T04:38:02;100400.91;;;-5.87;79.45
56074;BME280;41950;55.840;37.442;2023-11-19T04:40:27;100336.28;;;-6.26;79.57
56074;BME280;41950;55.840;37.442;2023-11-19T04:42:53;100362.88;;;-6.18;79.42
56074;BME280;41950;55.840;37.442;2023-11-19T04:45:19;100239.59;;;-6.94;79.41
56074;BME280;41950;55.840;37.442;2023-11-19T04:47:45;100261.41;;;-6.81;79.55
56074;BME280;41950;55.840;37.442;2023-11-19T04:50:11;100381.28;;;-6.06;79.73
56074;BME280;41950;55.840;37.442;2023-11-19T04:52:38;100180.16;;;-7.17;79.50
56074;BME280;41950;55.840;37.442;2023-11-19T04:55:06;100333.59;;;-6.29;79.74
56074;BME280;41950;55.840;37.442;2023-11-19T04:57:32;100262.97;;;-6.83;79.71
56074;BME280;41950;55.840;37.442;2023-11-19T04:59:58;100309.56;;;-6.50;79.66
56074;BME280;41950;55.840;37.442;2023-11-19T05:02:24;100243.56;;;-6.84;79.69
56074;BME280;41950;55.840;37.442;2023-11-19T05:04:50;100233.50;;;-6.98;79.76
56074;BME280;41950;55.840;37.442;2023-11-19T05:07:18;100403.28;;;-5.90;79.78
56074;BME280;41950;55.840;37.442;2023-11-19T05:09:44;100083.34;;;-7.62;79.37
56074;BME280;41950;55.840;37.442;2023-11-19T05:12:10;100357.84;;;-6.03;79.48
56074;BME280;41950;55.840;37.442;2023-11-19T05:14:38;100337.00;;;-6.14;79.70
56074;BME280;41950;55.840;37.442;2023-11-19T05:17:04;100352.59;;;-6.06;79.64
56074;BME280;41950;55.840;37.442;2023-11-19T05:19:29;100285.00;;;-6.53;79.48
56074;BME280;41950;55.840;37.442;2023-11-19T05:21:55;100361.13;;;-6.19;79.76
56074;BME280;41950;55.840;37.442;2023-11-19T05:24:22;100104.38;;;-7.61;79.61
56074;BME280;41950;55.840;37.442;2023-11-19T05:26:48;100217.66;;;-6.95;79.69
56074;BME280;41950;55.840;37.442;2023-11-19T05:29:15;100293.03;;;-6.45;79.77
56074;BME280;41950;55.840;37.442;2023-11-19T05:31:41;100388.47;;;-5.99;79.73
56074;BME280;41950;55.840;37.442;2023-11-19T05:34:07;100194.06;;;-7.24;79.75
56074;BME280;41950;55.840;37.442;2023-11-19T05:36:33;100243.06;;;-6.92;79.88
56074;BME280;41950;55.840;37.442;2023-11-19T05:38:58;100383.63;;;-6.09;80.00
56074;BME280;41950;55.840;37.442;2023-11-19T05:41:24;100268.75;;;-6.71;79.79
56074;BME280;41950;55.840;37.442;2023-11-19T05:43:50;100293.72;;;-6.48;79.93
56074;BME280;41950;55.840;37.442;2023-11-19T05:46:16;100419.00;;;-5.66;79.78
56074;BME280;41950;55.840;37.442;2023-11-19T05:48:42;100250.03;;;-6.60;79.75
56074;BME280;41950;55.840;37.442;2023-11-19T05:51:08;100248.41;;;-6.60;79.37
56074;BME280;41950;55.840;37.442;2023-11-19T05:53:34;100319.06;;;-6.18;79.24
56074;BME280;41950;55.840;37.442;2023-11-19T05:56:00;100367.03;;;-5.90;78.94
56074;BME280;41950;55.840;37.442;2023-11-19T05:58:29;100416.03;;;-5.59;78.89
56074;BME280;41950;55.840;37.442;2023-11-19T06:00:56;100291.22;;;-6.33;78.50
56074;BME280;41950;55.840;37.442;2023-11-19T06:03:22;100274.50;;;-6.31;78.40
56074;BME280;41950;55.840;37.442;2023-11-19T06:05:49;100408.41;;;-5.46;78.53
56074;BME280;41950;55.840;37.442;2023-11-19T06:08:15;100062.78;;;-7.40;78.14
56074;BME280;41950;55.840;37.442;2023-11-19T06:10:42;100169.47;;;-6.85;77.29
56074;BME280;41950;55.840;37.442;2023-11-19T06:13:09;100111.09;;;-7.34;77.61
56074;BME280;41950;55.840;37.442;2023-11-19T06:15:37;100057.09;;;-7.65;77.56
56074;BME280;41950;55.840;37.442;2023-11-19T06:18:06;100144.13;;;-7.01;77.42
56074;BME280;41950;55.840;37.442;2023-11-19T06:20:36;100176.31;;;-6.84;77.19
56074;BME280;41950;55.840;37.442;2023-11-19T06:23:02;100111.81;;;-7.22;77.02
56074;BME280;41950;55.840;37.442;2023-11-19T06:25:28;100341.03;;;-5.88;77.24
56074;BME280;41950;55.840;37.442;2023-11-19T06:27:54;100369.31;;;-5.66;76.73
56074;BME280;41950;55.840;37.442;2023-11-19T06:30:20;100290.13;;;-6.09;76.52
56074;BME280;41950;55.840;37.442;2023-11-19T06:32:49;100157.56;;;-6.88;76.56
56074;BME280;41950;55.840;37.442;2023-11-19T06:35:15;100373.94;;;-5.58;76.35
56074;BME280;41950;55.840;37.442;2023-11-19T06:37:41;100374.00;;;-5.57;76.31
56074;BME280;41950;55.840;37.442;2023-11-19T06:40:07;100390.25;;;-5.39;76.48
56074;BME280;41950;55.840;37.442;2023-11-19T06:42:35;100194.91;;;-6.39;76.39
56074;BME280;41950;55.840;37.442;2023-11-19T06:45:02;100259.28;;;-5.88;76.06
56074;BME280;41950;55.840;37.442;2023-11-19T06:47:31;100159.25;;;-6.59;75.55
56074;BME280;41950;55.840;37.442;2023-11-19T06:49:56;100277.22;;;-5.84;75.55
56074;BME280;41950;55.840;37.442;2023-11-19T06:52:23;100352.47;;;-5.36;74.93
56074;BME280;41950;55.840;37.442;2023-11-19T06:54:49;100394.88;;;-5.17;74.69
56074;BME280;41950;55.840;37.442;2023-11-19T06:57:17;100214.34;;;-6.24;74.14
56074;BME280;41950;55.840;37.442;2023-11-19T06:59:43;100172.16;;;-6.39;74.34
56074;BME280;41950;55.840;37.442;2023-11-19T07:02:17;100243.75;;;-5.80;73.90
56074;BME280;41950;55.840;37.442;2023-11-19T07:04:45;100379.22;;;-4.95;73.98
56074;BME280;41950;55.840;37.442;2023-11-19T07:07:11;100039.03;;;-6.86;73.49
56074;BME280;41950;55.840;37.442;2023-11-19T07:09:40;100124.03;;;-6.28;72.95
56074;BME280;41950;55.840;37.442;2023-11-19T07:12:06;100254.91;;;-5.47;72.11
56074;BME280;41950;55.840;37.442;2023-11-19T07:14:32;100142.28;;;-6.32;70.71
56074;BME280;41950;55.840;37.442;2023-11-19T07:17:02;100041.84;;;-6.96;70.05
56074;BME280;41950;55.840;37.442;2023-11-19T07:22:16;100133.69;;;-6.35;69.26
56074;BME280;41950;55.840;37.442;2023-11-19T07:24:43;100365.13;;;-4.75;69.21
56074;BME280;41950;55.840;37.442;2023-11-19T07:27:15;100244.78;;;-5.62;68.34
56074;BME280;41950;55.840;37.442;2023-11-19T07:29:45;100056.91;;;-6.83;68.06
56074;BME280;41950;55.840;37.442;2023-11-19T07:32:22;100081.50;;;-6.94;66.89
56074;BME280;41950;55.840;37.442;2023-11-19T07:34:48;100119.75;;;-6.73;66.20
56074;BME280;41950;55.840;37.442;2023-11-19T07:37:14;100071.50;;;-6.92;65.74
56074;BME280;41950;55.840;37.442;2023-11-19T07:40:07;100381.41;;;-5.01;66.46
56074;BME280;41950;55.840;37.442;2023-11-19T07:42:39;100133.22;;;-6.58;65.51
56074;BME280;41950;55.840;37.442;2023-11-19T07:45:05;100390.91;;;-4.97;65.31
56074;BME280;41950;55.840;37.442;2023-11-19T07:47:32;100156.16;;;-6.40;65.31
56074;BME280;41950;55.840;37.442;2023-11-19T07:49:58;100208.44;;;-5.95;65.02
56074;BME280;41950;55.840;37.442;2023-11-19T07:52:24;100171.13;;;-6.13;65.15
56074;BME280;41950;55.840;37.442;2023-11-19T07:54:49;100075.00;;;-6.61;64.99
56074;BME280;41950;55.840;37.442;2023-11-19T07:57:15;100077.53;;;-6.46;64.68
56074;BME280;41950;55.840;37.442;2023-11-19T07:59:41;100285.72;;;-5.23;64.31
56074;BME280;41950;55.840;37.442;2023-11-19T08:02:07;100274.28;;;-5.16;63.82
56074;BME280;41950;55.840;37.442;2023-11-19T08:04:33;100124.00;;;-6.13;62.54
56074;BME280;41950;55.840;37.442;2023-11-19T08:06:59;100138.22;;;-6.15;62.10
56074;BME280;41950;55.840;37.442;2023-11-19T08:09:25;100327.94;;;-5.07;62.74
56074;BME280;41950;55.840;37.442;2023-11-19T08:12:00;100092.16;;;-6.26;62.18
56074;BME280;41950;55.840;37.442;2023-11-19T08:14:26;100052.97;;;-6.48;62.30
56074;BME280;41950;55.840;37.442;2023-11-19T08:16:55;100159.47;;;-5.80;61.77
56074;BME280;41950;55.840;37.442;2023-11-19T08:19:20;100110.44;;;-6.30;61.79
56074;BME280;41950;55.840;37.442;2023-11-19T08:21:46;100104.88;;;-6.24;61.93
56074;BME280;41950;55.840;37.442;2023-11-19T08:24:12;100107.34;;;-6.09;61.29
56074;BME280;41950;55.840;37.442;2023-11-19T08:26:38;100049.72;;;-6.31;61.44
56074;BME280;41950;55.840;37.442;2023-11-19T08:29:07;100044.09;;;-6.42;61.40
56074;BME280;41950;55.840;37.442;2023-11-19T08:31:32;100120.75;;;-5.96;61.27
56074;BME280;41950;55.840;37.442;2023-11-19T08:34:02;100039.13;;;-6.09;61.20
56074;BME280;41950;55.840;37.442;2023-11-19T08:36:28;100036.59;;;-6.09;60.41
56074;BME280;41950;55.840;37.442;2023-11-19T08:38:54;100191.41;;;-5.04;60.54
56074;BME280;41950;55.840;37.442;2023-11-19T08:41:21;100045.75;;;-5.97;60.58
56074;BME280;41950;55.840;37.442;2023-11-19T08:43:47;100235.66;;;-4.81;60.37
56074;BME280;41950;55.840;37.442;2023-11-19T08:46:13;100352.63;;;-4.25;59.89
56074;BME280;41950;55.840;37.442;2023-11-19T08:48:39;100231.28;;;-5.16;60.00
56074;BME280;41950;55.840;37.442;2023-11-19T08:51:05;100096.91;;;-6.01;60.72
56074;BME280;41950;55.840;37.442;2023-11-19T08:53:32;100374.75;;;-4.53;61.45
56074;BME280;41950;55.840;37.442;2023-11-19T08:55:58;100023.31;;;-6.52;61.19
56074;BME280;41950;55.840;37.442;2023-11-19T08:58:24;100351.78;;;-4.56;61.98
56074;BME280;41950;55.840;37.442;2023-11-19T09:00:52;100280.63;;;-5.08;61.70
56074;BME280;41950;55.840;37.442;2023-11-19T09:03:18;100239.44;;;-5.37;62.05
56074;BME280;41950;55.840;37.442;2023-11-19T09:05:46;100220.16;;;-5.35;61.97
56074;BME280;41950;55.840;37.442;2023-11-19T09:08:12;100133.75;;;-5.73;62.15
56074;BME280;41950;55.840;37.442;2023-11-19T09:10:38;100150.84;;;-5.69;62.10
56074;BME280;41950;55.840;37.442;2023-11-19T09:13:04;100176.97;;;-5.69;60.92
56074;BME280;41950;55.840;37.442;2023-11-19T09:15:30;100018.16;;;-6.54;61.15
56074;BME280;41950;55.840;37.442;2023-11-19T09:17:55;100148.25;;;-5.85;61.30
56074;BME280;41950;55.840;37.442;2023-11-19T09:20:22;100373.47;;;-4.61;61.80
56074;BME280;41950;55.840;37.442;2023-11-19T09:22:49;100178.34;;;-5.59;61.32
56074;BME280;41950;55.840;37.442;2023-11-19T09:25:14;100038.34;;;-6.08;61.44
56074;BME280;41950;55.840;37.442;2023-11-19T09:27:44;100115.28;;;-5.72;60.30
56074;BME280;41950;55.840;37.442;2023-11-19T09:30:10;99983.59;;;-6.55;60.71
56074;BME280;41950;55.840;37.442;2023-11-19T09:32:36;100017.00;;;-6.30;61.19
56074;BME280;41950;55.840;37.442;2023-11-19T09:35:03;100145.97;;;-5.50;61.15
56074;BME280;41950;55.840;37.442;2023-11-19T09:37:30;99988.31;;;-6.30;60.60
56074;BME280;41950;55.840;37.442;2023-11-19T09:39:56;100166.47;;;-5.45;60.94
56074;BME280;41950;55.840;37.442;2023-11-19T09:42:23;100154.53;;;-5.32;60.87
56074;BME280;41950;55.840;37.442;2023-11-19T09:45:01;100039.91;;;-5.96;60.28
56074;BME280;41950;55.840;37.442;2023-11-19T09:47:30;100090.16;;;-5.53;60.39
56074;BME280;41950;55.840;37.442;2023-11-19T09:49:56;99964.53;;;-6.19;60.10
56074;BME280;41950;55.840;37.442;2023-11-19T09:55:19;99988.44;;;-6.29;60.23
56074;BME280;41950;55.840;37.442;2023-11-19T09:58:06;100276.44;;;-4.28;60.46
56074;BME280;41950;55.840;37.442;2023-11-19T10:00:35;99984.63;;;-5.89;60.17
56074;BME280;41950;55.840;37.442;2023-11-19T10:03:02;100250.22;;;-4.28;60.04
56074;BME280;41950;55.840;37.442;2023-11-19T10:05:31;100001.03;;;-5.33;59.65
56074;BME280;41950;55.840;37.442;2023-11-19T10:08:19;100008.78;;;-5.46;58.45
56074;BME280;41950;55.840;37.442;2023-11-19T10:11:06;100089.56;;;-5.16;59.37
56074;BME280;41950;55.840;37.442;2023-11-19T10:13:37;99988.69;;;-5.75;59.72
56074;BME280;41950;55.840;37.442;2023-11-19T10:16:12;100279.00;;;-3.94;59.83
56074;BME280;41950;55.840;37.442;2023-11-19T10:18:49;99930.06;;;-6.02;59.21
56074;BME280;41950;55.840;37.442;2023-11-19T10:21:25;100270.81;;;-4.22;59.91
56074;BME280;41950;55.840;37.442;2023-11-19T10:23:58;100280.88;;;-4.24;59.68
56074;BME280;41950;55.840;37.442;2023-11-19T10:26:46;100265.66;;;-4.24;59.47
56074;BME280;41950;55.840;37.442;2023-11-19T10:29:49;100282.06;;;-4.33;59.69
56074;BME280;41950;55.840;37.442;2023-11-19T10:33:06;100255.94;;;-4.49;59.67
56074;BME280;41950;55.840;37.442;2023-11-19T10:36:20;100263.63;;;-4.63;59.36
56074;BME280;41950;55.840;37.442;2023-11-19T10:42:21;100143.78;;;-5.44;59.83
56074;BME280;41950;55.840;37.442;2023-11-19T10:44:53;100158.25;;;-5.41;60.28
56074;BME280;41950;55.840;37.442;2023-11-19T10:47:32;100067.19;;;-5.88;60.35
56074;BME280;41950;55.840;37.442;2023-11-19T10:50:28;99988.06;;;-6.35;60.30
56074;BME280;41950;55.840;37.442;2023-11-19T10:53:06;99883.22;;;-6.90;60.29
56074;BME280;41950;55.840;37.442;2023-11-19T10:55:47;99962.34;;;-6.59;60.14
56074;BME280;41950;55.840;37.442;2023-11-19T10:58:20;100276.41;;;-4.77;60.68
56074;BME280;41950;55.840;37.442;2023-11-19T11:00:57;99967.59;;;-6.56;60.77
56074;BME280;41950;55.840;37.442;2023-11-19T11:06:53;100290.25;;;-4.70;61.03
56074;BME280;41950;55.840;37.442;2023-11-19T11:09:55;100212.50;;;-4.89;61.21
56074;BME280;41950;55.840;37.442;2023-11-19T11:16:31;99994.97;;;-6.01;60.91
56074;BME280;41950;55.840;37.442;2023-11-19T11:19:31;100093.25;;;-5.58;61.19
56074;BME280;41950;55.840;37.442;2023-11-19T11:21:58;99922.94;;;-6.26;61.10
56074;BME280;41950;55.840;37.442;2023-11-19T11:28:28;100253.38;;;-4.16;61.19
56074;BME280;41950;55.840;37.442;2023-11-19T11:31:43;100241.97;;;-4.08;61.33
56074;BME280;41950;55.840;37.442;2023-11-19T11:38:14;99881.41;;;-6.14;61.41
56074;BME280;41950;55.840;37.442;2023-11-19T11:41:21;100230.75;;;-3.95;61.44
56074;BME280;41950;55.840;37.442;2023-11-19T11:44:04;100038.03;;;-5.18;61.66
56074;BME280;41950;55.840;37.442;2023-11-19T11:49:14;99899.53;;;-5.89;61.19
56074;BME280;41950;55.840;37.442;2023-11-19T11:57:13;100234.84;;;-4.15;60.87
56074;BME280;41950;55.840;37.442;2023-11-19T12:03:02;99903.66;;;-6.07;60.72
56074;BME280;41950;55.840;37.442;2023-11-19T12:05:43;100083.72;;;-5.15;60.79
56074;BME280;41950;55.840;37.442;2023-11-19T12:08:43;100227.28;;;-4.31;60.92
56074;BME280;41950;55.840;37.442;2023-11-19T12:11:16;100000.97;;;-5.67;60.87
56074;BME280;41950;55.840;37.442;2023-11-19T12:14:20;100016.84;;;-5.69;60.81
56074;BME280;41950;55.840;37.442;2023-11-19T12:21:01;100011.56;;;-5.74;61.24
56074;BME280;41950;55.840;37.442;2023-11-19T12:28:06;99858.00;;;-6.90;61.39
56074;BME280;41950;55.840;37.442;2023-11-19T12:33:57;100125.84;;;-5.32;61.42
56074;BME280;41950;55.840;37.442;2023-11-19T12:36:41;99854.50;;;-6.77;61.62
56074;BME280;41950;55.840;37.442;2023-11-19T12:42:54;99942.13;;;-6.44;61.88
56074;BME280;41950;55.840;37.442;2023-11-19T12:46:03;100239.31;;;-4.76;62.30
56074;BME280;41950;55.840;37.442;2023-11-19T12:48:43;100013.09;;;-6.08;62.59
56074;BME280;41950;55.840;37.442;2023-11-19T12:54:55;100004.44;;;-6.28;63.04
56074;BME280;41950;55.840;37.442;2023-11-19T12:57:55;100207.16;;;-4.93;63.53
56074;BME280;41950;55.840;37.442;2023-11-19T13:00:42;100169.88;;;-5.29;63.55
56074;BME280;41950;55.840;37.442;2023-11-19T13:03:49;99965.97;;;-6.39;63.52
56074;BME280;41950;55.840;37.442;2023-11-19T13:06:45;100207.47;;;-5.04;64.13
56074;BME280;41950;55.840;37.442;2023-11-19T13:13:24;99835.81;;;-7.12;64.39
56074;BME280;41950;55.840;37.442;2023-11-19T13:20:24;99980.94;;;-6.27;64.42
56074;BME280;41950;55.840;37.442;2023-11-19T13:23:53;99979.19;;;-6.28;64.43
56074;BME280;41950;55.840;37.442;2023-11-19T13:26:45;99936.69;;;-6.51;64.60
56074;BME280;41950;55.840;37.442;2023-11-19T13:29:35;100115.28;;;-5.56;64.65
56074;BME280;41950;55.840;37.442;2023-11-19T13:33:16;99873.19;;;-7.05;64.74
56074;BME280;41950;55.840;37.442;2023-11-19T13:36:39;99762.25;;;-7.65;64.80
56074;BME280;41950;55.840;37.442;2023-11-19T13:39:45;99954.28;;;-6.53;65.15
56074;BME280;41950;55.840;37.442;2023-11-19T13:42:22;99957.69;;;-6.36;64.92
56074;BME280;41950;55.840;37.442;2023-11-19T13:48:00;99843.69;;;-7.21;64.57
56074;BME280;41950;55.840;37.442;2023-11-19T13:50:31;99739.28;;;-7.70;64.97
56074;BME280;41950;55.840;37.442;2023-11-19T13:53:37;99837.25;;;-7.16;64.83
56074;BME280;41950;55.840;37.442;2023-11-19T13:56:10;99993.50;;;-6.43;65.12
56074;BME280;41950;55.840;37.442;2023-11-19T13:58:41;100106.97;;;-5.70;64.93
56074;BME280;41950;55.840;37.442;2023-11-19T14:01:43;99866.03;;;-6.97;64.94
56074;BME280;41950;55.840;37.442;2023-11-19T14:04:12;99820.50;;;-7.30;65.00
56074;BME280;41950;55.840;37.442;2023-11-19T14:07:10;99985.75;;;-6.15;64.77